Time;durP1;ratioP1;P1;durP2;ratioP2;P2;SDS_P1;SDS_P2;PMS_P1;PMS_P2;Temp;Humidity;BMP_temperature;BMP_pressure;BME280_temperature;BME280_humidity;BME280_pressure;Samples;Min_cycle;Max_cycle;Signal;HPM_P1;HPM_P2
2023/01/04 00:01:43;;;;;;;;;;;7.40;75.80;;;;;;5054267;28;19921;-60
2023/01/04 00:04:10;;;;;;;;;;;7.40;72.60;;;;;;5054136;28;20298;-60
2023/01/04 00:06:37;;;;;;;;;;;7.40;78.40;;;;;;5053588;28;19957;-58
2023/01/04 00:09:03;;;;;;;;;;;7.40;75.60;;;;;;5053912;28;20054;-58
2023/01/04 00:11:31;;;;;;;;;;;7.40;72.50;;;;;;5054057;28;19924;-59
2023/01/04 00:13:58;;;;;;;;;;;7.50;74.50;;;;;;5053952;28;19947;-59
2023/01/04 00:16:26;;;;;;;;;;;7.50;72.70;;;;;;5053759;28;20023;-58
2023/01/04 00:18:53;;;;;;;;;;;7.50;78.70;;;;;;5053507;28;19932;-60
2023/01/04 00:21:21;;;;;;;;;;;7.50;68.10;;;;;;5054080;28;19921;-56
2023/01/04 00:23:48;;;;;;;;;;;7.50;75.20;;;;;;5061885;28;19921;-60
2023/01/04 00:26:15;;;;;;;;;;;7.50;78.70;;;;;;5070769;28;19928;-57
2023/01/04 00:28:43;;;;;;;;;;;7.50;75.50;;;;;;5073528;28;19920;-58
2023/01/04 00:31:11;;;;;;;;;;;7.50;71.10;;;;;;5073432;28;19927;-53
2023/01/04 00:33:37;;;;;;;;;;;7.60;68.70;;;;;;5073424;28;19966;-58
2023/01/04 00:36:05;;;;;;;;;;;7.70;65.50;;;;;;5072877;28;20483;-60
2023/01/04 00:38:32;;;;;;;;;;;7.70;57.20;;;;;;5072275;28;19931;-60
2023/01/04 00:40:58;;;;;;;;;;;7.70;56.90;;;;;;5073391;28;19924;-60
2023/01/04 00:43:25;;;;;;;;;;;7.80;57.50;;;;;;5073488;28;19921;-60
2023/01/04 00:45:53;;;;;;;;;;;7.80;53.00;;;;;;5072789;28;19985;-60
2023/01/04 00:48:20;;;;;;;;;;;7.80;55.10;;;;;;5073216;28;19924;-59
2023/01/04 00:50:47;;;;;;;;;;;7.80;55.80;;;;;;5073254;28;19966;-61
2023/01/04 00:53:14;;;;;;;;;;;7.80;53.30;;;;;;5064756;28;20319;-60
2023/01/04 00:55:40;;;;;;;;;;;7.90;60.10;;;;;;5060600;28;20303;-59
2023/01/04 00:58:07;;;;;;;;;;;7.90;61.40;;;;;;5052859;28;19936;-60
2023/01/04 01:00:34;;;;;;;;;;;7.90;69.20;;;;;;5052945;28;19966;-60
2023/01/04 01:03:02;;;;;;;;;;;7.90;91.30;;;;;;5052771;28;19921;-60
2023/01/04 01:05:28;;;;;;;;;;;7.80;99.90;;;;;;5052797;28;19927;-59
2023/01/04 01:07:55;;;;;;;;;;;7.80;99.90;;;;;;5052250;28;20447;-60
2023/01/04 01:10:22;;;;;;;;;;;7.80;99.90;;;;;;5052768;28;19921;-58
2023/01/04 01:12:48;;;;;;;;;;;7.70;99.90;;;;;;5052805;28;20339;-60
2023/01/04 01:15:15;;;;;;;;;;;7.70;99.90;;;;;;5052529;28;19920;-59
2023/01/04 01:17:41;;;;;;;;;;;7.70;99.90;;;;;;5052608;28;19924;-59
2023/01/04 01:20:10;;;;;;;;;;;7.70;99.90;;;;;;5052476;28;19974;-61
2023/01/04 01:22:36;;;;;;;;;;;7.70;99.90;;;;;;5056258;28;19973;-58
2023/01/04 01:25:03;;;;;;;;;;;7.60;99.90;;;;;;5064370;28;19924;-60
2023/01/04 01:27:29;;;;;;;;;;;7.60;99.90;;;;;;5072309;28;19965;-60
2023/01/04 01:29:56;;;;;;;;;;;7.60;99.90;;;;;;5072019;28;19924;-60
2023/01/04 01:32:22;;;;;;;;;;;7.50;99.90;;;;;;5072652;28;19947;-60
2023/01/04 01:34:49;;;;;;;;;;;7.50;99.90;;;;;;5072008;28;20402;-58
2023/01/04 01:37:17;;;;;;;;;;;7.50;99.90;;;;;;5072232;28;19920;-60
2023/01/04 01:39:43;;;;;;;;;;;7.40;99.90;;;;;;5072270;28;19928;-60
2023/01/04 01:42:17;;;;;;;;;;;7.40;99.90;;;;;;5072296;28;19920;-60
2023/01/04 01:45:00;;;;;;;;;;;7.40;99.90;;;;;;5072478;28;19920;-60
2023/01/04 01:47:30;;;;;;;;;;;7.40;99.90;;;;;;5072528;28;19924;-59
2023/01/04 01:49:57;;;;;;;;;;;7.40;99.90;;;;;;5071929;28;19974;-58
2023/01/04 01:52:28;;;;;;;;;;;7.40;99.90;;;;;;5070303;28;20464;-58
2023/01/04 01:54:56;;;;;;;;;;;7.40;99.90;;;;;;5060183;28;20370;-60
2023/01/04 01:57:24;;;;;;;;;;;7.40;99.90;;;;;;5052325;28;19970;-58
2023/01/04 01:59:52;;;;;;;;;;;7.30;99.90;;;;;;5052127;28;19924;-58
2023/01/04 02:02:19;;;;;;;;;;;7.30;99.90;;;;;;5051956;28;20384;-58
2023/01/04 02:04:47;;;;;;;;;;;7.30;99.90;;;;;;5052128;28;19925;-59
2023/01/04 02:07:16;;;;;;;;;;;7.30;99.90;;;;;;5051814;28;19924;-58
2023/01/04 02:09:44;;;;;;;;;;;7.30;99.90;;;;;;5051718;28;20042;-60
2023/01/04 02:12:11;;;;;;;;;;;7.30;99.90;;;;;;5052252;28;19967;-59
2023/01/04 02:14:37;;;;;;;;;;;7.30;99.90;;;;;;5052001;28;19924;-59
2023/01/04 02:17:06;;;;;;;;;;;7.30;99.90;;;;;;5054108;28;20338;-60
2023/01/04 02:19:57;;;;;;;;;;;7.30;99.90;;;;;;5055900;28;19924;-57
2023/01/04 02:22:42;;;;;;;;;;;7.30;99.90;;;;;;5042557;28;19921;-59
2023/01/04 02:25:21;;;;;;;;;;;7.30;99.90;;;;;;5068012;28;20341;-59
2023/01/04 02:27:52;;;;;;;;;;;7.30;99.90;;;;;;5075684;28;19920;-60
2023/01/04 02:30:51;;;;;;;;;;;7.20;99.90;;;;;;5075801;28;19966;-59
2023/01/04 02:33:27;;;;;;;;;;;7.20;99.90;;;;;;5013457;28;20313;-61
2023/01/04 02:35:58;;;;;;;;;;;7.20;99.90;;;;;;5013117;28;20436;-59
2023/01/04 02:38:27;;;;;;;;;;;7.20;99.90;;;;;;5045977;28;19921;-58
2023/01/04 02:40:57;;;;;;;;;;;7.20;99.90;;;;;;5075604;28;19924;-59
2023/01/04 02:46:14;;;;;;;;;;;7.20;99.90;;;;;;5075309;28;19923;-60
2023/01/04 02:51:27;;;;;;;;;;;7.20;99.90;;;;;;5075586;28;19928;-59
2023/01/04 02:53:55;;;;;;;;;;;7.20;99.90;;;;;;5067079;28;19920;-59
2023/01/04 02:56:34;;;;;;;;;;;7.20;99.90;;;;;;5056995;28;19947;-57
2023/01/04 02:59:07;;;;;;;;;;;7.20;99.90;;;;;;5055138;28;19920;-57
2023/01/04 03:07:17;;;;;;;;;;;7.30;99.90;;;;;;5054731;28;20346;-60
2023/01/04 03:09:47;;;;;;;;;;;7.30;99.90;;;;;;5054965;28;19971;-57
2023/01/04 03:12:31;;;;;;;;;;;7.30;99.90;;;;;;5055353;28;20027;-60
2023/01/04 03:15:00;;;;;;;;;;;7.40;99.90;;;;;;5055085;28;19924;-57
2023/01/04 03:17:30;;;;;;;;;;;7.40;99.90;;;;;;5054925;28;20380;-57
2023/01/04 03:19:59;;;;;;;;;;;7.40;99.90;;;;;;5055062;28;19925;-60
2023/01/04 03:36:20;;;;;;;;;;;7.60;99.90;;;;;;5074356;28;20011;-60
2023/01/04 03:49:56;;;;;;;;;;;7.70;99.90;;;;;;5074171;28;20017;-58
2023/01/04 03:52:26;;;;;;;;;;;7.80;99.90;;;;;;5072326;28;19924;-60
2023/01/04 03:54:53;;;;;;;;;;;7.70;99.90;;;;;;5062426;28;20047;-59
2023/01/04 03:57:20;;;;;;;;;;;7.80;99.90;;;;;;5053901;28;19987;-56
2023/01/04 03:59:49;;;;;;;;;;;7.80;99.90;;;;;;5054133;28;19974;-55
2023/01/04 04:02:18;;;;;;;;;;;7.80;99.90;;;;;;5053453;28;19920;-59
2023/01/04 04:10:14;;;;;;;;;;;7.90;99.90;;;;;;5053659;28;19966;-60
2023/01/04 04:12:41;;;;;;;;;;;7.80;99.90;;;;;;5054172;28;19947;-55
2023/01/04 04:15:08;;;;;;;;;;;7.80;99.90;;;;;;5054001;28;19967;-55
2023/01/04 04:17:34;;;;;;;;;;;7.80;99.90;;;;;;5053547;28;19974;-58
2023/01/04 04:20:01;;;;;;;;;;;7.80;99.90;;;;;;5053812;28;19947;-60
2023/01/04 04:22:27;;;;;;;;;;;7.80;99.90;;;;;;5056012;28;19920;-59
2023/01/04 04:24:55;;;;;;;;;;;7.80;99.90;;;;;;5065189;28;20329;-60
2023/01/04 04:27:22;;;;;;;;;;;7.80;99.90;;;;;;5073129;28;19921;-59
2023/01/04 04:29:48;;;;;;;;;;;7.90;99.90;;;;;;5073624;28;19973;-60
2023/01/04 04:32:15;;;;;;;;;;;7.80;99.90;;;;;;5073627;28;19920;-58
2023/01/04 04:34:41;;;;;;;;;;;7.80;99.90;;;;;;5073362;28;19920;-60
2023/01/04 04:37:08;;;;;;;;;;;7.90;99.90;;;;;;5071582;28;19946;-58
2023/01/04 04:39:35;;;;;;;;;;;7.80;99.90;;;;;;5072607;28;19974;-58
2023/01/04 04:42:02;;;;;;;;;;;7.80;99.90;;;;;;5073201;28;20333;-59
2023/01/04 04:44:28;;;;;;;;;;;7.90;99.90;;;;;;5073086;28;20387;-59
2023/01/04 04:46:55;;;;;;;;;;;7.90;99.90;;;;;;5072795;28;20357;-57
2023/01/04 04:49:21;;;;;;;;;;;7.90;99.90;;;;;;5072977;28;19974;-57
2023/01/04 04:51:48;;;;;;;;;;;7.90;99.90;;;;;;5073146;28;19920;-55
2023/01/04 04:54:16;;;;;;;;;;;7.90;99.90;;;;;;5064156;28;19928;-58
2023/01/04 04:56:42;;;;;;;;;;;7.90;99.90;;;;;;5053105;28;19967;-56
2023/01/04 04:59:10;;;;;;;;;;;7.90;99.90;;;;;;5053171;28;20289;-60
2023/01/04 05:01:36;;;;;;;;;;;7.90;99.90;;;;;;5053108;28;19921;-57
2023/01/04 05:04:03;;;;;;;;;;;7.90;99.90;;;;;;5052998;28;19928;-58
2023/01/04 05:06:30;;;;;;;;;;;7.90;99.90;;;;;;5052739;28;19939;-60
2023/01/04 05:08:56;;;;;;;;;;;7.90;99.90;;;;;;5052957;28;19947;-59
2023/01/04 05:14:03;;;;;;;;;;;7.90;99.90;;;;;;5052342;28;19920;-60
2023/01/04 05:16:31;;;;;;;;;;;8.00;99.90;;;;;;5052516;28;19967;-57
2023/01/04 05:18:58;;;;;;;;;;;8.00;99.90;;;;;;5052386;28;19921;-58
2023/01/04 05:21:24;;;;;;;;;;;8.00;99.90;;;;;;5052867;28;19921;-60
2023/01/04 05:23:51;;;;;;;;;;;8.00;99.90;;;;;;5060958;28;19925;-60
2023/01/04 05:26:18;;;;;;;;;;;7.90;99.90;;;;;;5070130;28;19920;-59
2023/01/04 05:28:44;;;;;;;;;;;8.00;99.90;;;;;;5072706;28;19969;-59
2023/01/04 05:31:10;;;;;;;;;;;8.00;99.90;;;;;;5072424;28;19925;-59
2023/01/04 05:33:38;;;;;;;;;;;8.00;99.90;;;;;;5072408;28;19916;-60
2023/01/04 05:36:04;;;;;;;;;;;8.10;99.90;;;;;;5072434;28;20275;-59
2023/01/04 05:38:32;;;;;;;;;;;8.10;99.90;;;;;;5072446;28;19920;-65
2023/01/04 05:40:58;;;;;;;;;;;8.20;99.90;;;;;;5072126;28;19965;-59
2023/01/04 05:43:25;;;;;;;;;;;8.20;99.90;;;;;;5072256;28;19966;-60
2023/01/04 05:45:52;;;;;;;;;;;8.20;99.90;;;;;;5072261;28;19921;-60
2023/01/04 05:48:20;;;;;;;;;;;8.20;99.90;;;;;;5071909;28;20015;-59
2023/01/04 05:50:49;;;;;;;;;;;8.30;99.90;;;;;;5072343;28;19927;-55
2023/01/04 05:53:17;;;;;;;;;;;8.30;99.90;;;;;;5063980;28;19921;-56
2023/01/04 05:55:44;;;;;;;;;;;8.30;99.90;;;;;;5059033;28;19932;-59
2023/01/04 05:58:10;;;;;;;;;;;8.40;99.90;;;;;;5052037;28;19978;-59
2023/01/04 06:00:37;;;;;;;;;;;8.40;99.90;;;;;;5057729;28;19967;-61
2023/01/04 06:03:03;;;;;;;;;;;8.40;99.90;;;;;;5060819;28;19927;-62
2023/01/04 06:05:30;;;;;;;;;;;8.40;99.90;;;;;;5060763;28;20315;-62
2023/01/04 06:07:58;;;;;;;;;;;8.50;99.90;;;;;;5051480;28;19952;-62
2023/01/04 06:10:25;;;;;;;;;;;8.50;99.90;;;;;;5053773;28;19925;-61
2023/01/04 06:12:51;;;;;;;;;;;8.50;99.90;;;;;;5063629;28;20314;-61
2023/01/04 06:15:18;;;;;;;;;;;8.50;99.90;;;;;;5071270;28;19920;-59
2023/01/04 06:17:45;;;;;;;;;;;8.50;99.90;;;;;;5071559;28;19926;-60
2023/01/04 06:20:11;;;;;;;;;;;8.50;99.90;;;;;;5070917;28;19924;-61
2023/01/04 06:22:39;;;;;;;;;;;8.50;99.90;;;;;;5067232;28;20445;-63
2023/01/04 06:25:07;;;;;;;;;;;8.60;99.90;;;;;;5059645;28;20007;-62
2023/01/04 06:27:34;;;;;;;;;;;8.60;99.90;;;;;;5071340;28;19986;-59
2023/01/04 06:30:00;;;;;;;;;;;8.60;99.90;;;;;;5055583;28;20661;-56
2023/01/04 06:32:27;;;;;;;;;;;8.60;99.90;;;;;;5051284;28;19921;-58
2023/01/04 06:34:54;;;;;;;;;;;8.70;99.90;;;;;;5051544;28;19948;-59
2023/01/04 06:37:20;;;;;;;;;;;8.60;99.90;;;;;;5050940;28;19975;-59
2023/01/04 06:39:47;;;;;;;;;;;8.70;99.90;;;;;;5051274;28;20413;-61
2023/01/04 06:44:59;;;;;;;;;;;8.70;99.90;;;;;;5051642;28;20406;-61
2023/01/04 06:47:25;;;;;;;;;;;8.70;99.90;;;;;;5050942;28;19921;-60
2023/01/04 06:49:52;;;;;;;;;;;8.60;99.90;;;;;;5051298;28;20264;-61
2023/01/04 06:52:19;;;;;;;;;;;8.60;99.90;;;;;;5052291;28;19971;-60
2023/01/04 06:54:45;;;;;;;;;;;8.60;99.90;;;;;;5063172;28;19947;-58
2023/01/04 06:57:12;;;;;;;;;;;8.60;99.90;;;;;;5052684;28;19924;-62
2023/01/04 06:59:40;;;;;;;;;;;8.70;99.90;;;;;;5056276;28;20346;-58
2023/01/04 07:02:07;;;;;;;;;;;8.70;99.90;;;;;;5051569;28;19921;-60
2023/01/04 07:04:33;;;;;;;;;;;8.70;99.90;;;;;;5054037;28;19924;-59
2023/01/04 07:07:00;;;;;;;;;;;8.70;99.90;;;;;;5053659;28;19921;-59
2023/01/04 07:09:26;;;;;;;;;;;8.70;99.90;;;;;;5053393;28;19978;-61
2023/01/04 07:11:53;;;;;;;;;;;8.70;99.90;;;;;;5062738;28;19944;-61
2023/01/04 07:14:19;;;;;;;;;;;8.80;99.90;;;;;;5065657;28;19996;-62
2023/01/04 07:16:47;;;;;;;;;;;8.90;99.90;;;;;;5056031;28;19920;-62
2023/01/04 07:19:14;;;;;;;;;;;8.90;99.90;;;;;;5053876;28;19920;-61
2023/01/04 07:21:41;;;;;;;;;;;8.90;99.90;;;;;;5053762;28;19921;-60
2023/01/04 07:24:07;;;;;;;;;;;8.90;99.90;;;;;;5062070;28;19927;-59
2023/01/04 07:26:34;;;;;;;;;;;8.90;99.90;;;;;;5074306;28;19920;-60
2023/01/04 07:31:45;;;;;;;;;;;9.00;99.90;;;;;;5053835;28;19928;-59
2023/01/04 07:34:13;;;;;;;;;;;9.00;99.90;;;;;;5053524;28;19928;-62
2023/01/04 07:36:40;;;;;;;;;;;8.90;99.90;;;;;;5053414;28;19951;-57
2023/01/04 07:39:08;;;;;;;;;;;8.90;99.90;;;;;;5052937;28;19925;-61
2023/01/04 07:41:37;;;;;;;;;;;8.90;99.90;;;;;;5053555;28;19985;-60
2023/01/04 07:44:04;;;;;;;;;;;8.90;99.90;;;;;;5061657;28;19924;-59
2023/01/04 07:46:30;;;;;;;;;;;8.90;99.90;;;;;;5072186;28;20558;-60
2023/01/04 07:48:57;;;;;;;;;;;9.00;99.90;;;;;;5073109;28;19924;-55
2023/01/04 07:51:25;;;;;;;;;;;9.00;99.90;;;;;;5071870;28;19946;-62
2023/01/04 07:53:51;;;;;;;;;;;9.10;99.90;;;;;;5064319;28;20371;-63
2023/01/04 07:56:18;;;;;;;;;;;9.10;99.90;;;;;;5055763;28;19971;-57
2023/01/04 07:58:45;;;;;;;;;;;9.10;99.90;;;;;;5053058;28;19931;-55
2023/01/04 08:01:12;;;;;;;;;;;9.10;99.90;;;;;;5061497;28;19920;-59
2023/01/04 08:03:39;;;;;;;;;;;9.10;99.90;;;;;;5065363;28;19920;-62
2023/01/04 08:06:06;;;;;;;;;;;9.20;99.90;;;;;;5073634;28;19924;-61
2023/01/04 08:08:34;;;;;;;;;;;9.20;99.90;;;;;;5072790;28;19947;-61
2023/01/04 08:11:01;;;;;;;;;;;9.30;99.90;;;;;;5073319;28;20371;-61
2023/01/04 08:13:28;;;;;;;;;;;9.30;99.90;;;;;;5072700;28;19921;-61
2023/01/04 08:15:54;;;;;;;;;;;9.30;99.90;;;;;;5072277;28;19920;-61
2023/01/04 08:18:21;;;;;;;;;;;9.40;99.90;;;;;;5072768;28;20398;-61
2023/01/04 08:20:49;;;;;;;;;;;9.40;99.90;;;;;;5072561;28;19928;-61
2023/01/04 08:23:15;;;;;;;;;;;9.40;99.90;;;;;;5064731;28;19979;-61
2023/01/04 08:25:43;;;;;;;;;;;9.40;99.90;;;;;;5059558;28;19921;-63
2023/01/04 08:28:09;;;;;;;;;;;9.50;99.90;;;;;;5052791;28;19935;-62
2023/01/04 08:30:36;;;;;;;;;;;9.50;99.90;;;;;;5048187;28;19920;-60
2023/01/04 08:33:02;;;;;;;;;;;9.60;99.90;;;;;;5064296;28;19931;-62
2023/01/04 08:35:29;;;;;;;;;;;9.60;99.90;;;;;;5053906;28;19920;-62
2023/01/04 08:37:55;;;;;;;;;;;9.60;99.90;;;;;;5051823;28;19920;-62
2023/01/04 08:40:22;;;;;;;;;;;9.70;99.90;;;;;;5052810;28;19921;-61
2023/01/04 08:42:50;;;;;;;;;;;9.70;99.90;;;;;;5060440;28;19921;-63
2023/01/04 08:45:17;;;;;;;;;;;9.80;99.90;;;;;;5070042;28;19946;-62
2023/01/04 08:47:43;;;;;;;;;;;9.80;99.90;;;;;;5072240;28;19924;-62
2023/01/04 08:50:10;;;;;;;;;;;9.90;99.90;;;;;;5072329;28;19966;-61
2023/01/04 08:52:36;;;;;;;;;;;10.00;99.90;;;;;;5068751;28;19947;-60
2023/01/04 08:55:03;;;;;;;;;;;10.00;99.90;;;;;;5059855;28;19987;-62
2023/01/04 08:57:30;;;;;;;;;;;10.10;99.90;;;;;;5052077;28;19928;-64
2023/01/04 08:59:58;;;;;;;;;;;10.20;99.90;;;;;;5051942;28;19924;-60
2023/01/04 09:02:25;;;;;;;;;;;10.30;99.90;;;;;;5062524;28;19971;-59
2023/01/04 09:04:53;;;;;;;;;;;10.30;99.90;;;;;;5072559;28;19920;-60
2023/01/04 09:07:20;;;;;;;;;;;10.40;99.90;;;;;;5071660;28;19927;-61
2023/01/04 09:09:46;;;;;;;;;;;10.40;99.90;;;;;;5072124;28;19978;-60
2023/01/04 09:12:13;;;;;;;;;;;10.40;99.90;;;;;;5071523;28;20384;-66
2023/01/04 09:14:40;;;;;;;;;;;10.40;99.90;;;;;;5072152;28;20014;-57
2023/01/04 09:17:08;;;;;;;;;;;10.50;99.90;;;;;;5071501;28;19960;-58
2023/01/04 09:19:34;;;;;;;;;;;10.50;99.90;;;;;;5071958;28;19920;-64
2023/01/04 09:22:01;;;;;;;;;;;10.50;99.90;;;;;;5071939;28;19954;-64
2023/01/04 09:24:28;;;;;;;;;;;10.50;99.90;;;;;;5060537;28;19920;-65
2023/01/04 09:26:54;;;;;;;;;;;10.50;99.90;;;;;;5051786;28;19921;-65
2023/01/04 09:29:21;;;;;;;;;;;10.60;99.90;;;;;;5051490;28;19983;-66
2023/01/04 09:31:47;;;;;;;;;;;10.70;99.90;;;;;;5052232;28;19927;-65
2023/01/04 09:34:15;;;;;;;;;;;10.60;99.90;;;;;;5051795;28;19921;-64
2023/01/04 09:36:42;;;;;;;;;;;10.60;99.90;;;;;;5051880;28;20375;-68
2023/01/04 09:39:09;;;;;;;;;;;10.70;99.90;;;;;;5051496;28;19921;-69
2023/01/04 09:41:37;;;;;;;;;;;10.60;99.90;;;;;;5051421;28;19925;-66
2023/01/04 09:44:10;;;;;;;;;;;10.60;99.90;;;;;;5059708;28;19920;-68
2023/01/04 09:46:39;;;;;;;;;;;10.60;99.90;;;;;;5031319;28;19921;-65
2023/01/04 09:49:13;;;;;;;;;;;10.60;99.90;;;;;;5031340;28;19925;-68
2023/01/04 09:51:43;;;;;;;;;;;10.50;99.90;;;;;;5031429;28;19967;-67
2023/01/04 09:54:15;;;;;;;;;;;10.50;99.90;;;;;;5056740;28;19951;-68
2023/01/04 09:56:45;;;;;;;;;;;10.60;99.90;;;;;;5071358;28;19971;-67
2023/01/04 09:59:14;;;;;;;;;;;10.60;99.90;;;;;;5071513;28;20357;-67
2023/01/04 10:01:43;;;;;;;;;;;10.60;99.90;;;;;;5063312;28;20375;-67
2023/01/04 10:04:15;;;;;;;;;;;10.60;99.90;;;;;;5054908;28;19924;-68
2023/01/04 10:06:43;;;;;;;;;;;10.60;99.90;;;;;;5051043;28;19945;-60
2023/01/04 10:09:11;;;;;;;;;;;10.60;99.90;;;;;;5050920;28;20035;-60
2023/01/04 10:11:45;;;;;;;;;;;10.60;99.90;;;;;;5051655;28;19921;-64
2023/01/04 10:14:22;;;;;;;;;;;10.60;99.90;;;;;;5051259;28;20011;-65
2023/01/04 10:16:56;;;;;;;;;;;10.60;99.90;;;;;;5051251;28;20333;-64
2023/01/04 10:19:29;;;;;;;;;;;10.60;99.90;;;;;;5051493;28;20330;-65
2023/01/04 10:21:59;;;;;;;;;;;10.60;99.90;;;;;;5051132;28;19978;-64
2023/01/04 10:24:36;;;;;;;;;;;10.60;99.90;;;;;;5061991;28;19929;-66
2023/01/04 10:27:07;;;;;;;;;;;10.60;99.90;;;;;;5070755;28;19976;-65
2023/01/04 10:29:44;;;;;;;;;;;10.60;99.90;;;;;;5058273;28;19970;-61
2023/01/04 10:32:14;;;;;;;;;;;10.60;99.90;;;;;;5050308;28;19921;-63
2023/01/04 10:34:42;;;;;;;;;;;10.60;99.90;;;;;;5071529;28;19980;-63
2023/01/04 10:37:13;;;;;;;;;;;10.50;99.90;;;;;;5071370;28;19920;-62
2023/01/04 10:39:39;;;;;;;;;;;10.50;99.90;;;;;;5074836;28;19920;-63
2023/01/04 10:42:10;;;;;;;;;;;10.40;99.90;;;;;;5075096;28;19935;-57
2023/01/04 10:44:38;;;;;;;;;;;10.40;99.90;;;;;;5074684;28;20307;-63
2023/01/04 10:47:07;;;;;;;;;;;10.30;99.90;;;;;;5075080;28;19924;-62
2023/01/04 10:49:40;;;;;;;;;;;10.40;99.90;;;;;;5074128;28;20046;-62
2023/01/04 10:52:09;;;;;;;;;;;10.40;99.90;;;;;;5074497;28;20445;-61
2023/01/04 10:54:38;;;;;;;;;;;10.40;99.90;;;;;;5054329;28;19978;-61
2023/01/04 10:57:10;;;;;;;;;;;10.40;99.90;;;;;;5054752;28;19932;-57
2023/01/04 10:59:39;;;;;;;;;;;10.40;99.90;;;;;;5055037;28;20028;-59
2023/01/04 11:02:12;;;;;;;;;;;10.50;99.90;;;;;;5054798;28;20631;-58
2023/01/04 11:04:40;;;;;;;;;;;10.40;99.90;;;;;;5055230;28;20008;-65
2023/01/04 11:07:10;;;;;;;;;;;10.50;99.90;;;;;;5053918;28;19966;-63
2023/01/04 11:09:42;;;;;;;;;;;10.50;99.90;;;;;;5054384;28;20280;-65
2023/01/04 11:12:11;;;;;;;;;;;10.50;99.90;;;;;;5054165;28;19924;-64
2023/01/04 11:14:37;;;;;;;;;;;10.50;99.90;;;;;;5054507;28;19921;-64
2023/01/04 11:17:05;;;;;;;;;;;10.50;99.90;;;;;;5054247;28;19925;-64
2023/01/04 11:19:32;;;;;;;;;;;10.50;99.90;;;;;;5053848;28;19974;-59
2023/01/04 11:22:01;;;;;;;;;;;10.60;99.90;;;;;;5054484;28;19924;-60
2023/01/04 11:24:31;;;;;;;;;;;10.60;99.90;;;;;;5064442;28;19920;-59
2023/01/04 11:27:02;;;;;;;;;;;10.60;99.90;;;;;;5073901;28;19920;-53
2023/01/04 11:29:32;;;;;;;;;;;10.60;99.90;;;;;;5067695;28;19948;-59
2023/01/04 11:32:01;;;;;;;;;;;10.60;99.90;;;;;;5053736;28;20621;-61
2023/01/04 11:34:43;;;;;;;;;;;10.70;99.90;;;;;;5054454;28;19959;-61
2023/01/04 11:37:22;;;;;;;;;;;10.70;99.90;;;;;;5053872;28;19943;-59
2023/01/04 11:39:49;;;;;;;;;;;10.60;99.90;;;;;;5053586;28;19927;-66
2023/01/04 11:42:19;;;;;;;;;;;10.60;99.90;;;;;;5053519;28;19940;-64
2023/01/04 11:44:57;;;;;;;;;;;10.60;99.90;;;;;;5061613;28;19974;-63
2023/01/04 11:47:24;;;;;;;;;;;10.70;99.90;;;;;;5071991;28;19942;-63
2023/01/04 11:49:51;;;;;;;;;;;10.70;99.90;;;;;;5073566;28;19920;-60
2023/01/04 11:52:28;;;;;;;;;;;10.70;99.90;;;;;;5072082;28;19920;-59
2023/01/04 11:54:54;;;;;;;;;;;10.70;99.90;;;;;;5061943;28;19921;-61
2023/01/04 11:57:22;;;;;;;;;;;10.80;99.90;;;;;;5062930;28;19975;-62
2023/01/04 12:00:07;;;;;;;;;;;10.80;99.90;;;;;;5068935;28;19921;-65
2023/01/04 12:02:33;;;;;;;;;;;10.80;99.90;;;;;;5052838;28;20277;-62
2023/01/04 12:05:00;;;;;;;;;;;10.80;99.90;;;;;;5052822;28;19947;-60
2023/01/04 12:07:29;;;;;;;;;;;10.90;99.90;;;;;;5052622;28;19924;-64
2023/01/04 12:09:56;;;;;;;;;;;10.90;99.90;;;;;;5052705;28;20020;-62
2023/01/04 12:12:27;;;;;;;;;;;10.90;99.90;;;;;;5053078;28;20032;-62
2023/01/04 12:14:55;;;;;;;;;;;10.90;99.90;;;;;;5052869;28;20371;-63
2023/01/04 12:17:23;;;;;;;;;;;10.90;99.90;;;;;;5053165;28;19920;-62
2023/01/04 12:19:52;;;;;;;;;;;10.90;99.90;;;;;;5052297;28;20376;-59
2023/01/04 12:22:21;;;;;;;;;;;10.90;99.90;;;;;;5054299;28;19960;-62
2023/01/04 12:24:47;;;;;;;;;;;10.90;99.90;;;;;;5064837;28;19978;-61
2023/01/04 12:27:14;;;;;;;;;;;10.90;99.90;;;;;;5072569;28;19920;-57
2023/01/04 12:29:44;;;;;;;;;;;10.80;99.90;;;;;;5072440;28;19928;-62
2023/01/04 12:32:29;;;;;;;;;;;10.80;99.90;;;;;;5072389;28;19964;-61
2023/01/04 12:34:56;;;;;;;;;;;10.80;99.90;;;;;;5072827;28;19966;-61
2023/01/04 12:37:39;;;;;;;;;;;10.80;99.90;;;;;;5072110;28;19973;-61
2023/01/04 12:40:20;;;;;;;;;;;10.80;99.90;;;;;;5070476;28;20614;-61
2023/01/04 12:43:02;;;;;;;;;;;10.80;99.90;;;;;;5071976;28;20357;-60
2023/01/04 12:45:30;;;;;;;;;;;10.70;99.90;;;;;;5072039;28;20342;-60
2023/01/04 12:50:58;;;;;;;;;;;10.80;99.90;;;;;;5067402;28;19932;-56
2023/01/04 12:53:48;;;;;;;;;;;10.80;99.90;;;;;;5049978;28;20346;-59
2023/01/04 12:56:15;;;;;;;;;;;10.80;99.90;;;;;;5051346;28;19927;-60
2023/01/04 12:58:42;;;;;;;;;;;10.80;99.90;;;;;;5051740;28;19970;-59
2023/01/04 13:01:24;;;;;;;;;;;10.80;99.90;;;;;;5051110;28;19921;-60
2023/01/04 13:03:54;;;;;;;;;;;10.80;99.90;;;;;;5049671;28;20621;-60
2023/01/04 13:06:22;;;;;;;;;;;10.90;99.90;;;;;;5051836;28;20342;-58
2023/01/04 13:08:50;;;;;;;;;;;10.90;99.90;;;;;;5049228;28;19920;-64
2023/01/04 13:11:23;;;;;;;;;;;10.90;99.90;;;;;;5054464;28;19973;-63
2023/01/04 13:13:52;;;;;;;;;;;10.90;99.90;;;;;;5065308;28;19920;-68
2023/01/04 13:16:23;;;;;;;;;;;10.90;99.90;;;;;;5070430;28;20322;-66
2023/01/04 13:18:50;;;;;;;;;;;11.00;99.90;;;;;;5054172;28;19921;-66
2023/01/04 13:21:23;;;;;;;;;;;11.00;99.90;;;;;;5052702;28;19971;-65
2023/01/04 13:23:51;;;;;;;;;;;11.00;99.90;;;;;;5060042;28;19974;-64
2023/01/04 13:26:33;;;;;;;;;;;11.00;99.90;;;;;;5069588;28;19921;-69
2023/01/04 13:29:14;;;;;;;;;;;11.00;99.90;;;;;;5071533;28;20016;-68
2023/01/04 13:31:55;;;;;;;;;;;11.00;99.90;;;;;;5071922;28;19925;-68
2023/01/04 13:34:23;;;;;;;;;;;11.10;99.90;;;;;;5071955;28;19928;-67
2023/01/04 13:36:55;;;;;;;;;;;11.10;99.90;;;;;;5071506;28;19968;-66
2023/01/04 13:39:22;;;;;;;;;;;11.10;99.90;;;;;;5071911;28;19920;-66
2023/01/04 13:41:51;;;;;;;;;;;11.10;99.90;;;;;;5071497;28;20428;-68
2023/01/04 13:44:24;;;;;;;;;;;11.10;99.90;;;;;;5071357;28;19974;-68
2023/01/04 13:46:53;;;;;;;;;;;11.10;99.90;;;;;;5071204;28;19924;-69
2023/01/04 13:49:19;;;;;;;;;;;11.10;99.90;;;;;;5060923;28;19920;-68
2023/01/04 13:51:46;;;;;;;;;;;11.20;99.90;;;;;;5051563;28;19927;-66
2023/01/04 13:54:19;;;;;;;;;;;11.20;99.90;;;;;;5060189;28;19921;-63
2023/01/04 13:56:45;;;;;;;;;;;11.20;99.90;;;;;;5071580;28;20582;-63
2023/01/04 13:59:12;;;;;;;;;;;11.20;99.90;;;;;;5070763;28;19921;-62
2023/01/04 14:01:42;;;;;;;;;;;11.20;99.90;;;;;;5071062;28;19929;-61
2023/01/04 14:04:14;;;;;;;;;;;11.20;99.90;;;;;;5062553;28;19966;-61
2023/01/04 14:06:43;;;;;;;;;;;11.20;99.90;;;;;;5031291;28;20380;-61
2023/01/04 14:09:14;;;;;;;;;;;11.20;99.90;;;;;;5031285;28;20010;-62
2023/01/04 14:11:58;;;;;;;;;;;11.20;99.90;;;;;;5031090;28;19929;-61
2023/01/04 14:14:36;;;;;;;;;;;11.20;99.90;;;;;;5035483;28;19927;-62
2023/01/04 14:17:24;;;;;;;;;;;11.20;99.90;;;;;;5037299;28;20284;-64
2023/01/04 14:19:52;;;;;;;;;;;11.20;99.90;;;;;;5050333;28;19921;-64
2023/01/04 14:22:25;;;;;;;;;;;11.20;99.90;;;;;;5056215;28;19927;-62
2023/01/04 14:24:53;;;;;;;;;;;11.20;99.90;;;;;;5066839;28;19924;-65
2023/01/04 14:27:31;;;;;;;;;;;11.20;99.90;;;;;;5075029;28;19924;-64
2023/01/04 14:29:57;;;;;;;;;;;11.30;99.90;;;;;;5075104;28;19924;-62
2023/01/04 14:32:25;;;;;;;;;;;11.20;99.90;;;;;;5075505;28;20311;-63
2023/01/04 14:34:51;;;;;;;;;;;11.20;99.90;;;;;;5074954;28;19924;-65
2023/01/04 14:37:18;;;;;;;;;;;11.20;99.90;;;;;;5074763;28;19924;-63
2023/01/04 14:39:45;;;;;;;;;;;11.20;99.90;;;;;;5068727;28;19920;-64
2023/01/04 14:42:24;;;;;;;;;;;11.20;99.90;;;;;;5063799;28;20298;-62
2023/01/04 14:44:52;;;;;;;;;;;11.20;99.90;;;;;;5061867;28;20078;-61
2023/01/04 14:47:18;;;;;;;;;;;11.20;99.90;;;;;;5063624;28;19932;-61
2023/01/04 14:49:45;;;;;;;;;;;11.20;99.90;;;;;;5064942;28;19995;-61
2023/01/04 14:52:17;;;;;;;;;;;11.10;99.90;;;;;;5064860;28;19920;-56
2023/01/04 14:54:44;;;;;;;;;;;11.20;99.90;;;;;;5063061;28;19921;-61
2023/01/04 14:57:11;;;;;;;;;;;11.20;99.90;;;;;;5063511;28;20347;-61
2023/01/04 14:59:37;;;;;;;;;;;11.20;99.90;;;;;;5055389;28;20019;-60
2023/01/04 15:02:05;;;;;;;;;;;11.20;99.90;;;;;;5054844;28;19921;-60
2023/01/04 15:04:32;;;;;;;;;;;11.20;99.90;;;;;;5055118;28;19929;-61
2023/01/04 15:06:59;;;;;;;;;;;11.20;99.90;;;;;;5055172;28;19920;-58
2023/01/04 15:09:27;;;;;;;;;;;11.20;99.90;;;;;;5055136;28;19924;-61
2023/01/04 15:11:53;;;;;;;;;;;11.20;99.90;;;;;;5055114;28;20345;-60
2023/01/04 15:14:20;;;;;;;;;;;11.20;99.90;;;;;;5055012;28;19921;-60
2023/01/04 15:16:49;;;;;;;;;;;11.30;99.90;;;;;;5054829;28;19920;-61
2023/01/04 15:19:16;;;;;;;;;;;11.30;99.90;;;;;;5054822;28;19921;-61
2023/01/04 15:21:43;;;;;;;;;;;11.20;99.90;;;;;;5055224;28;19975;-60
2023/01/04 15:24:10;;;;;;;;;;;11.30;99.90;;;;;;5062701;28;19928;-60
2023/01/04 15:26:37;;;;;;;;;;;11.30;99.90;;;;;;5074870;28;19920;-60